sensor_id;sensor_type;location;lat;lon;timestamp;P1;durP1;ratioP1;P2;durP2;ratioP2
71667;SDS011;59504;54.806;9.640;2022-07-29T00:01:43;2.63;;;0.90;;
71667;SDS011;59504;54.806;9.640;2022-07-29T00:03:44;3.58;;;1.40;;
71667;SDS011;59504;54.806;9.640;2022-07-29T00:05:45;2.75;;;1.13;;
71667;SDS011;59504;54.806;9.640;2022-07-29T00:07:46;2.50;;;1.05;;
71667;SDS011;59504;54.806;9.640;2022-07-29T00:09:46;3.30;;;1.00;;
71667;SDS011;59504;54.806;9.640;2022-07-29T00:11:47;2.83;;;1.23;;
71667;SDS011;59504;54.806;9.640;2022-07-29T00:13:48;2.08;;;1.20;;
71667;SDS011;59504;54.806;9.640;2022-07-29T00:15:49;1.67;;;1.10;;
71667;SDS011;59504;54.806;9.640;2022-07-29T00:17:49;2.75;;;0.88;;
71667;SDS011;59504;54.806;9.640;2022-07-29T00:19:50;2.85;;;0.90;;
71667;SDS011;59504;54.806;9.640;2022-07-29T00:21:51;2.67;;;1.13;;
71667;SDS011;59504;54.806;9.640;2022-07-29T00:23:52;3.60;;;1.65;;
71667;SDS011;59504;54.806;9.640;2022-07-29T00:25:53;1.90;;;1.30;;
71667;SDS011;59504;54.806;9.640;2022-07-29T00:27:53;4.90;;;1.55;;
71667;SDS011;59504;54.806;9.640;2022-07-29T00:29:54;4.97;;;1.15;;
71667;SDS011;59504;54.806;9.640;2022-07-29T00:31:55;6.78;;;1.70;;
71667;SDS011;59504;54.806;9.640;2022-07-29T00:33:56;10.57;;;2.17;;
71667;SDS011;59504;54.806;9.640;2022-07-29T00:35:57;2.70;;;1.58;;
71667;SDS011;59504;54.806;9.640;2022-07-29T00:37:57;4.63;;;1.90;;
71667;SDS011;59504;54.806;9.640;2022-07-29T00:39:58;5.25;;;2.13;;
71667;SDS011;59504;54.806;9.640;2022-07-29T00:41:59;5.00;;;2.13;;
71667;SDS011;59504;54.806;9.640;2022-07-29T00:44:23;5.47;;;1.88;;
71667;SDS011;59504;54.806;9.640;2022-07-29T00:46:43;2.67;;;1.45;;
71667;SDS011;59504;54.806;9.640;2022-07-29T00:49:04;4.80;;;2.30;;
71667;SDS011;59504;54.806;9.640;2022-07-29T00:51:05;9.07;;;1.88;;
71667;SDS011;59504;54.806;9.640;2022-07-29T00:53:07;7.65;;;1.88;;
71667;SDS011;59504;54.806;9.640;2022-07-29T00:55:10;5.90;;;2.03;;
71667;SDS011;59504;54.806;9.640;2022-07-29T00:57:11;3.22;;;2.00;;
71667;SDS011;59504;54.806;9.640;2022-07-29T00:59:12;6.20;;;1.70;;
71667;SDS011;59504;54.806;9.640;2022-07-29T01:01:13;5.72;;;1.80;;
71667;SDS011;59504;54.806;9.640;2022-07-29T01:03:14;3.55;;;1.83;;
71667;SDS011;59504;54.806;9.640;2022-07-29T01:05:16;3.88;;;1.70;;
71667;SDS011;59504;54.806;9.640;2022-07-29T01:07:18;5.70;;;1.70;;
71667;SDS011;59504;54.806;9.640;2022-07-29T01:09:19;6.18;;;1.70;;
71667;SDS011;59504;54.806;9.640;2022-07-29T01:11:20;4.65;;;2.03;;
71667;SDS011;59504;54.806;9.640;2022-07-29T01:13:21;4.85;;;1.60;;
71667;SDS011;59504;54.806;9.640;2022-07-29T01:15:22;7.00;;;1.55;;
71667;SDS011;59504;54.806;9.640;2022-07-29T01:19:33;2.43;;;1.50;;
71667;SDS011;59504;54.806;9.640;2022-07-29T01:21:51;2.97;;;1.48;;
71667;SDS011;59504;54.806;9.640;2022-07-29T01:26:11;4.97;;;2.08;;
71667;SDS011;59504;54.806;9.640;2022-07-29T01:30:44;3.70;;;1.58;;
71667;SDS011;59504;54.806;9.640;2022-07-29T01:32:50;4.40;;;1.23;;
71667;SDS011;59504;54.806;9.640;2022-07-29T01:34:58;3.22;;;1.48;;
71667;SDS011;59504;54.806;9.640;2022-07-29T01:37:18;2.50;;;1.40;;
71667;SDS011;59504;54.806;9.640;2022-07-29T01:39:39;3.00;;;1.42;;
71667;SDS011;59504;54.806;9.640;2022-07-29T01:44:12;4.50;;;1.35;;
71667;SDS011;59504;54.806;9.640;2022-07-29T01:46:24;2.10;;;1.15;;
71667;SDS011;59504;54.806;9.640;2022-07-29T01:48:31;4.50;;;1.27;;
71667;SDS011;59504;54.806;9.640;2022-07-29T01:50:48;4.95;;;1.83;;
71667;SDS011;59504;54.806;9.640;2022-07-29T01:52:56;5.05;;;1.35;;
71667;SDS011;59504;54.806;9.640;2022-07-29T01:55:02;2.40;;;1.30;;
71667;SDS011;59504;54.806;9.640;2022-07-29T01:57:11;5.50;;;1.65;;
71667;SDS011;59504;54.806;9.640;2022-07-29T01:59:14;4.63;;;1.45;;
71667;SDS011;59504;54.806;9.640;2022-07-29T02:01:17;6.72;;;1.77;;
71667;SDS011;59504;54.806;9.640;2022-07-29T02:03:20;5.88;;;1.80;;
71667;SDS011;59504;54.806;9.640;2022-07-29T02:05:22;5.03;;;1.60;;
71667;SDS011;59504;54.806;9.640;2022-07-29T02:07:27;2.55;;;1.20;;
71667;SDS011;59504;54.806;9.640;2022-07-29T02:09:32;6.32;;;1.70;;
71667;SDS011;59504;54.806;9.640;2022-07-29T02:11:35;3.13;;;1.48;;
71667;SDS011;59504;54.806;9.640;2022-07-29T02:13:38;2.53;;;1.30;;
71667;SDS011;59504;54.806;9.640;2022-07-29T02:15:41;2.17;;;1.20;;
71667;SDS011;59504;54.806;9.640;2022-07-29T02:17:46;2.50;;;1.60;;
71667;SDS011;59504;54.806;9.640;2022-07-29T02:19:51;2.30;;;1.45;;
71667;SDS011;59504;54.806;9.640;2022-07-29T02:21:57;7.57;;;1.60;;
71667;SDS011;59504;54.806;9.640;2022-07-29T02:24:00;3.90;;;1.52;;
71667;SDS011;59504;54.806;9.640;2022-07-29T02:26:02;3.08;;;1.90;;
71667;SDS011;59504;54.806;9.640;2022-07-29T02:28:04;3.08;;;1.30;;
71667;SDS011;59504;54.806;9.640;2022-07-29T02:30:06;8.32;;;1.30;;
71667;SDS011;59504;54.806;9.640;2022-07-29T02:32:08;4.70;;;1.30;;
71667;SDS011;59504;54.806;9.640;2022-07-29T02:34:14;4.45;;;1.38;;
71667;SDS011;59504;54.806;9.640;2022-07-29T02:38:20;5.57;;;1.33;;
71667;SDS011;59504;54.806;9.640;2022-07-29T02:40:42;3.15;;;1.50;;
71667;SDS011;59504;54.806;9.640;2022-07-29T02:42:44;4.15;;;1.50;;
71667;SDS011;59504;54.806;9.640;2022-07-29T02:44:46;2.22;;;1.42;;
71667;SDS011;59504;54.806;9.640;2022-07-29T02:47:02;3.67;;;1.30;;
71667;SDS011;59504;54.806;9.640;2022-07-29T02:51:45;4.43;;;1.30;;
71667;SDS011;59504;54.806;9.640;2022-07-29T02:53:58;2.85;;;1.20;;
71667;SDS011;59504;54.806;9.640;2022-07-29T02:56:07;5.88;;;1.35;;
71667;SDS011;59504;54.806;9.640;2022-07-29T02:58:21;4.57;;;1.38;;
71667;SDS011;59504;54.806;9.640;2022-07-29T03:00:29;3.70;;;1.30;;
71667;SDS011;59504;54.806;9.640;2022-07-29T03:02:39;3.40;;;1.30;;
71667;SDS011;59504;54.806;9.640;2022-07-29T03:04:43;2.08;;;1.40;;
71667;SDS011;59504;54.806;9.640;2022-07-29T03:06:46;3.35;;;1.25;;
71667;SDS011;59504;54.806;9.640;2022-07-29T03:08:48;5.72;;;1.50;;
71667;SDS011;59504;54.806;9.640;2022-07-29T03:10:50;2.30;;;1.30;;
71667;SDS011;59504;54.806;9.640;2022-07-29T03:12:52;1.92;;;1.00;;
71667;SDS011;59504;54.806;9.640;2022-07-29T03:14:55;3.47;;;1.38;;
71667;SDS011;59504;54.806;9.640;2022-07-29T03:16:56;2.83;;;1.73;;
71667;SDS011;59504;54.806;9.640;2022-07-29T03:18:58;2.20;;;1.52;;
71667;SDS011;59504;54.806;9.640;2022-07-29T03:21:00;5.43;;;1.63;;
71667;SDS011;59504;54.806;9.640;2022-07-29T03:23:02;3.15;;;1.33;;
71667;SDS011;59504;54.806;9.640;2022-07-29T03:25:12;2.25;;;1.42;;
71667;SDS011;59504;54.806;9.640;2022-07-29T03:27:14;6.00;;;1.50;;
71667;SDS011;59504;54.806;9.640;2022-07-29T03:29:15;3.55;;;1.45;;
71667;SDS011;59504;54.806;9.640;2022-07-29T03:31:16;4.05;;;1.40;;
71667;SDS011;59504;54.806;9.640;2022-07-29T03:33:16;3.95;;;1.85;;
71667;SDS011;59504;54.806;9.640;2022-07-29T03:35:18;9.43;;;1.58;;
71667;SDS011;59504;54.806;9.640;2022-07-29T03:37:21;3.25;;;1.42;;
71667;SDS011;59504;54.806;9.640;2022-07-29T03:39:22;2.22;;;1.17;;
71667;SDS011;59504;54.806;9.640;2022-07-29T03:41:25;3.50;;;1.67;;
71667;SDS011;59504;54.806;9.640;2022-07-29T03:43:27;3.35;;;1.50;;
71667;SDS011;59504;54.806;9.640;2022-07-29T03:45:52;3.88;;;1.33;;
71667;SDS011;59504;54.806;9.640;2022-07-29T03:48:15;5.17;;;1.43;;
71667;SDS011;59504;54.806;9.640;2022-07-29T03:50:20;5.82;;;1.42;;
71667;SDS011;59504;54.806;9.640;2022-07-29T03:52:41;3.88;;;1.50;;
71667;SDS011;59504;54.806;9.640;2022-07-29T03:55:03;6.20;;;2.38;;
71667;SDS011;59504;54.806;9.640;2022-07-29T03:57:24;4.63;;;1.35;;
71667;SDS011;59504;54.806;9.640;2022-07-29T03:59:47;2.38;;;1.48;;
71667;SDS011;59504;54.806;9.640;2022-07-29T04:02:09;3.13;;;1.30;;
71667;SDS011;59504;54.806;9.640;2022-07-29T04:04:32;4.03;;;1.75;;
71667;SDS011;59504;54.806;9.640;2022-07-29T04:06:54;4.28;;;1.63;;
71667;SDS011;59504;54.806;9.640;2022-07-29T04:09:15;2.65;;;1.65;;
71667;SDS011;59504;54.806;9.640;2022-07-29T04:11:35;4.03;;;1.80;;
71667;SDS011;59504;54.806;9.640;2022-07-29T04:13:58;2.58;;;1.55;;
71667;SDS011;59504;54.806;9.640;2022-07-29T04:16:18;6.55;;;1.75;;
71667;SDS011;59504;54.806;9.640;2022-07-29T04:18:39;4.97;;;1.77;;
71667;SDS011;59504;54.806;9.640;2022-07-29T04:21:00;6.57;;;2.03;;
71667;SDS011;59504;54.806;9.640;2022-07-29T04:23:21;6.35;;;1.85;;
71667;SDS011;59504;54.806;9.640;2022-07-29T04:25:41;5.72;;;1.92;;
71667;SDS011;59504;54.806;9.640;2022-07-29T04:27:42;5.88;;;2.10;;
71667;SDS011;59504;54.806;9.640;2022-07-29T04:30:00;3.42;;;1.90;;
71667;SDS011;59504;54.806;9.640;2022-07-29T04:32:01;2.75;;;1.45;;
71667;SDS011;59504;54.806;9.640;2022-07-29T04:34:02;3.90;;;1.75;;
71667;SDS011;59504;54.806;9.640;2022-07-29T04:36:03;7.15;;;2.08;;
71667;SDS011;59504;54.806;9.640;2022-07-29T04:38:04;4.72;;;2.10;;
71667;SDS011;59504;54.806;9.640;2022-07-29T04:40:06;3.33;;;2.08;;
71667;SDS011;59504;54.806;9.640;2022-07-29T04:42:07;4.15;;;1.90;;
71667;SDS011;59504;54.806;9.640;2022-07-29T04:44:07;7.82;;;1.90;;
71667;SDS011;59504;54.806;9.640;2022-07-29T04:46:08;4.68;;;2.13;;
71667;SDS011;59504;54.806;9.640;2022-07-29T04:48:09;6.20;;;1.95;;
71667;SDS011;59504;54.806;9.640;2022-07-29T04:50:10;5.35;;;2.58;;
71667;SDS011;59504;54.806;9.640;2022-07-29T04:52:11;5.55;;;1.80;;
71667;SDS011;59504;54.806;9.640;2022-07-29T04:54:12;5.05;;;2.20;;
71667;SDS011;59504;54.806;9.640;2022-07-29T04:56:12;2.83;;;1.80;;
71667;SDS011;59504;54.806;9.640;2022-07-29T04:58:13;4.25;;;2.20;;
71667;SDS011;59504;54.806;9.640;2022-07-29T05:00:14;3.95;;;1.83;;
71667;SDS011;59504;54.806;9.640;2022-07-29T05:02:15;5.82;;;1.80;;
71667;SDS011;59504;54.806;9.640;2022-07-29T05:04:16;4.25;;;1.90;;
71667;SDS011;59504;54.806;9.640;2022-07-29T05:06:16;4.80;;;1.67;;
71667;SDS011;59504;54.806;9.640;2022-07-29T05:08:27;6.63;;;2.00;;
71667;SDS011;59504;54.806;9.640;2022-07-29T05:10:47;5.13;;;1.95;;
71667;SDS011;59504;54.806;9.640;2022-07-29T05:13:08;7.35;;;1.90;;
71667;SDS011;59504;54.806;9.640;2022-07-29T05:15:28;5.53;;;2.03;;
71667;SDS011;59504;54.806;9.640;2022-07-29T05:17:49;5.78;;;1.90;;
71667;SDS011;59504;54.806;9.640;2022-07-29T05:20:10;3.88;;;1.70;;
71667;SDS011;59504;54.806;9.640;2022-07-29T05:22:31;3.45;;;1.58;;
71667;SDS011;59504;54.806;9.640;2022-07-29T05:24:51;3.42;;;1.92;;
71667;SDS011;59504;54.806;9.640;2022-07-29T05:27:12;5.82;;;1.60;;
71667;SDS011;59504;54.806;9.640;2022-07-29T05:29:33;4.55;;;1.88;;
71667;SDS011;59504;54.806;9.640;2022-07-29T05:31:53;4.97;;;2.10;;
71667;SDS011;59504;54.806;9.640;2022-07-29T05:34:14;5.43;;;1.88;;
71667;SDS011;59504;54.806;9.640;2022-07-29T05:36:35;6.95;;;1.42;;
71667;SDS011;59504;54.806;9.640;2022-07-29T05:38:55;3.70;;;1.63;;
71667;SDS011;59504;54.806;9.640;2022-07-29T05:41:16;5.43;;;1.83;;
71667;SDS011;59504;54.806;9.640;2022-07-29T05:43:37;8.00;;;1.85;;
71667;SDS011;59504;54.806;9.640;2022-07-29T05:45:57;5.03;;;1.80;;
71667;SDS011;59504;54.806;9.640;2022-07-29T05:48:18;3.90;;;1.35;;
71667;SDS011;59504;54.806;9.640;2022-07-29T05:50:39;6.35;;;1.45;;
71667;SDS011;59504;54.806;9.640;2022-07-29T05:53:00;10.43;;;1.73;;
71667;SDS011;59504;54.806;9.640;2022-07-29T05:55:20;3.40;;;1.50;;
71667;SDS011;59504;54.806;9.640;2022-07-29T05:57:41;2.83;;;1.20;;
71667;SDS011;59504;54.806;9.640;2022-07-29T05:59:43;6.78;;;1.30;;
71667;SDS011;59504;54.806;9.640;2022-07-29T06:01:44;3.95;;;1.60;;
71667;SDS011;59504;54.806;9.640;2022-07-29T06:03:44;3.05;;;1.48;;
71667;SDS011;59504;54.806;9.640;2022-07-29T06:05:45;4.63;;;1.38;;
71667;SDS011;59504;54.806;9.640;2022-07-29T06:07:46;4.65;;;1.50;;
71667;SDS011;59504;54.806;9.640;2022-07-29T06:09:46;4.88;;;1.40;;
71667;SDS011;59504;54.806;9.640;2022-07-29T06:11:47;4.10;;;1.15;;
71667;SDS011;59504;54.806;9.640;2022-07-29T06:13:48;2.63;;;1.20;;
71667;SDS011;59504;54.806;9.640;2022-07-29T06:15:49;3.90;;;1.30;;
71667;SDS011;59504;54.806;9.640;2022-07-29T06:17:49;8.60;;;1.10;;
71667;SDS011;59504;54.806;9.640;2022-07-29T06:19:50;5.35;;;1.35;;
71667;SDS011;59504;54.806;9.640;2022-07-29T06:21:51;3.25;;;0.95;;
71667;SDS011;59504;54.806;9.640;2022-07-29T06:23:51;3.75;;;1.25;;
71667;SDS011;59504;54.806;9.640;2022-07-29T06:25:52;6.80;;;1.65;;
71667;SDS011;59504;54.806;9.640;2022-07-29T06:27:53;2.33;;;0.88;;
71667;SDS011;59504;54.806;9.640;2022-07-29T06:29:53;4.72;;;1.30;;
71667;SDS011;59504;54.806;9.640;2022-07-29T06:31:54;2.90;;;1.08;;
71667;SDS011;59504;54.806;9.640;2022-07-29T06:33:55;3.42;;;1.00;;
71667;SDS011;59504;54.806;9.640;2022-07-29T06:35:56;4.68;;;1.25;;
71667;SDS011;59504;54.806;9.640;2022-07-29T06:37:57;7.90;;;0.93;;
71667;SDS011;59504;54.806;9.640;2022-07-29T06:39:57;2.38;;;1.00;;
71667;SDS011;59504;54.806;9.640;2022-07-29T06:42:16;4.25;;;1.00;;
71667;SDS011;59504;54.806;9.640;2022-07-29T06:44:17;5.57;;;0.98;;
71667;SDS011;59504;54.806;9.640;2022-07-29T06:46:19;3.33;;;1.10;;
71667;SDS011;59504;54.806;9.640;2022-07-29T06:49:16;5.07;;;1.10;;
71667;SDS011;59504;54.806;9.640;2022-07-29T06:51:36;3.20;;;1.10;;
71667;SDS011;59504;54.806;9.640;2022-07-29T06:56:38;3.00;;;0.75;;
71667;SDS011;59504;54.806;9.640;2022-07-29T07:02:24;7.03;;;1.08;;
71667;SDS011;59504;54.806;9.640;2022-07-29T07:07:13;2.30;;;0.70;;
71667;SDS011;59504;54.806;9.640;2022-07-29T07:12:02;4.70;;;1.40;;
71667;SDS011;59504;54.806;9.640;2022-07-29T07:18:13;7.22;;;1.20;;
71667;SDS011;59504;54.806;9.640;2022-07-29T07:20:34;3.05;;;1.23;;
71667;SDS011;59504;54.806;9.640;2022-07-29T07:22:56;4.28;;;1.00;;
71667;SDS011;59504;54.806;9.640;2022-07-29T07:25:30;2.53;;;1.02;;
71667;SDS011;59504;54.806;9.640;2022-07-29T07:27:51;4.22;;;1.13;;
71667;SDS011;59504;54.806;9.640;2022-07-29T07:30:15;4.55;;;1.33;;
71667;SDS011;59504;54.806;9.640;2022-07-29T07:39:46;2.65;;;1.30;;
71667;SDS011;59504;54.806;9.640;2022-07-29T07:42:07;4.28;;;1.30;;
71667;SDS011;59504;54.806;9.640;2022-07-29T08:08:50;3.20;;;1.15;;
71667;SDS011;59504;54.806;9.640;2022-07-29T08:14:28;5.13;;;1.25;;
71667;SDS011;59504;54.806;9.640;2022-07-29T08:19:56;4.93;;;1.50;;
71667;SDS011;59504;54.806;9.640;2022-07-29T08:28:11;7.85;;;1.60;;
71667;SDS011;59504;54.806;9.640;2022-07-29T08:30:12;3.63;;;1.25;;
71667;SDS011;59504;54.806;9.640;2022-07-29T08:32:13;3.78;;;1.30;;
71667;SDS011;59504;54.806;9.640;2022-07-29T08:34:14;5.20;;;1.60;;
71667;SDS011;59504;54.806;9.640;2022-07-29T08:36:15;4.75;;;1.20;;
71667;SDS011;59504;54.806;9.640;2022-07-29T08:38:16;6.20;;;1.95;;
71667;SDS011;59504;54.806;9.640;2022-07-29T08:40:17;12.10;;;1.95;;
71667;SDS011;59504;54.806;9.640;2022-07-29T08:42:18;13.05;;;1.67;;
71667;SDS011;59504;54.806;9.640;2022-07-29T08:44:18;3.10;;;1.27;;
71667;SDS011;59504;54.806;9.640;2022-07-29T08:46:21;3.30;;;1.40;;
71667;SDS011;59504;54.806;9.640;2022-07-29T08:48:23;3.83;;;1.80;;
71667;SDS011;59504;54.806;9.640;2022-07-29T08:50:24;7.17;;;1.50;;
71667;SDS011;59504;54.806;9.640;2022-07-29T08:52:31;3.95;;;1.58;;
71667;SDS011;59504;54.806;9.640;2022-07-29T08:54:35;5.95;;;1.70;;
71667;SDS011;59504;54.806;9.640;2022-07-29T08:56:37;4.30;;;1.48;;
71667;SDS011;59504;54.806;9.640;2022-07-29T08:58:40;9.63;;;1.55;;
71667;SDS011;59504;54.806;9.640;2022-07-29T09:01:16;4.00;;;1.40;;
71667;SDS011;59504;54.806;9.640;2022-07-29T09:03:15;5.97;;;1.50;;
71667;SDS011;59504;54.806;9.640;2022-07-29T09:05:18;8.32;;;1.80;;
71667;SDS011;59504;54.806;9.640;2022-07-29T09:07:20;6.03;;;1.55;;
71667;SDS011;59504;54.806;9.640;2022-07-29T09:09:23;5.13;;;1.92;;
71667;SDS011;59504;54.806;9.640;2022-07-29T09:11:24;7.75;;;1.45;;
71667;SDS011;59504;54.806;9.640;2022-07-29T09:13:28;2.85;;;1.40;;
71667;SDS011;59504;54.806;9.640;2022-07-29T09:15:29;5.40;;;1.70;;
71667;SDS011;59504;54.806;9.640;2022-07-29T09:19:47;5.60;;;1.15;;
71667;SDS011;59504;54.806;9.640;2022-07-29T09:21:47;5.05;;;1.52;;
71667;SDS011;59504;54.806;9.640;2022-07-29T09:24:08;6.88;;;1.50;;
71667;SDS011;59504;54.806;9.640;2022-07-29T09:26:08;8.18;;;1.42;;
71667;SDS011;59504;54.806;9.640;2022-07-29T09:28:10;8.43;;;1.52;;
71667;SDS011;59504;54.806;9.640;2022-07-29T09:32:14;5.25;;;1.30;;
71667;SDS011;59504;54.806;9.640;2022-07-29T09:34:16;15.70;;;1.80;;
71667;SDS011;59504;54.806;9.640;2022-07-29T09:36:22;7.30;;;1.55;;
71667;SDS011;59504;54.806;9.640;2022-07-29T09:38:23;6.13;;;1.70;;
71667;SDS011;59504;54.806;9.640;2022-07-29T09:40:26;4.15;;;1.60;;
71667;SDS011;59504;54.806;9.640;2022-07-29T09:42:28;6.32;;;1.80;;
71667;SDS011;59504;54.806;9.640;2022-07-29T09:46:59;8.20;;;1.80;;
71667;SDS011;59504;54.806;9.640;2022-07-29T09:49:26;5.65;;;1.55;;
71667;SDS011;59504;54.806;9.640;2022-07-29T09:51:28;5.45;;;1.67;;
71667;SDS011;59504;54.806;9.640;2022-07-29T09:53:48;10.00;;;1.83;;
71667;SDS011;59504;54.806;9.640;2022-07-29T09:56:10;9.23;;;1.80;;
71667;SDS011;59504;54.806;9.640;2022-07-29T09:58:17;26.25;;;2.67;;
71667;SDS011;59504;54.806;9.640;2022-07-29T10:00:41;5.75;;;1.90;;
71667;SDS011;59504;54.806;9.640;2022-07-29T10:03:03;5.63;;;1.35;;
71667;SDS011;59504;54.806;9.640;2022-07-29T10:07:45;5.82;;;1.63;;
71667;SDS011;59504;54.806;9.640;2022-07-29T10:10:26;6.22;;;1.20;;
71667;SDS011;59504;54.806;9.640;2022-07-29T10:13:04;10.77;;;1.80;;
71667;SDS011;59504;54.806;9.640;2022-07-29T10:15:42;10.68;;;1.60;;
71667;SDS011;59504;54.806;9.640;2022-07-29T10:18:04;9.30;;;1.70;;
71667;SDS011;59504;54.806;9.640;2022-07-29T10:20:29;9.25;;;1.67;;
71667;SDS011;59504;54.806;9.640;2022-07-29T10:23:19;9.05;;;1.65;;
71667;SDS011;59504;54.806;9.640;2022-07-29T10:25:52;5.65;;;1.30;;
71667;SDS011;59504;54.806;9.640;2022-07-29T10:28:22;2.72;;;1.02;;
71667;SDS011;59504;54.806;9.640;2022-07-29T10:33:54;6.70;;;1.60;;
71667;SDS011;59504;54.806;9.640;2022-07-29T10:42:29;11.57;;;1.77;;
71667;SDS011;59504;54.806;9.640;2022-07-29T10:47:27;9.35;;;1.80;;
71667;SDS011;59504;54.806;9.640;2022-07-29T10:49:30;4.18;;;1.30;;
71667;SDS011;59504;54.806;9.640;2022-07-29T10:53:55;4.75;;;1.40;;
71667;SDS011;59504;54.806;9.640;2022-07-29T10:59:51;3.80;;;1.60;;
71667;SDS011;59504;54.806;9.640;2022-07-29T11:09:18;10.55;;;1.20;;
71667;SDS011;59504;54.806;9.640;2022-07-29T11:16:08;3.58;;;1.42;;
71667;SDS011;59504;54.806;9.640;2022-07-29T11:23:19;6.53;;;1.52;;
71667;SDS011;59504;54.806;9.640;2022-07-29T11:25:40;17.27;;;1.70;;
71667;SDS011;59504;54.806;9.640;2022-07-29T11:28:08;7.55;;;1.77;;
71667;SDS011;59504;54.806;9.640;2022-07-29T11:30:50;7.28;;;1.58;;
71667;SDS011;59504;54.806;9.640;2022-07-29T11:33:32;7.25;;;1.30;;
71667;SDS011;59504;54.806;9.640;2022-07-29T11:36:09;5.63;;;1.33;;
71667;SDS011;59504;54.806;9.640;2022-07-29T11:38:31;3.85;;;1.20;;
71667;SDS011;59504;54.806;9.640;2022-07-29T11:46:09;8.60;;;1.90;;
71667;SDS011;59504;54.806;9.640;2022-07-29T11:48:29;28.00;;;1.55;;
71667;SDS011;59504;54.806;9.640;2022-07-29T11:50:51;3.83;;;1.20;;
71667;SDS011;59504;54.806;9.640;2022-07-29T11:52:52;8.13;;;1.33;;
71667;SDS011;59504;54.806;9.640;2022-07-29T11:54:53;2.38;;;0.90;;
71667;SDS011;59504;54.806;9.640;2022-07-29T11:56:59;4.38;;;1.17;;
71667;SDS011;59504;54.806;9.640;2022-07-29T11:59:06;3.70;;;1.15;;
71667;SDS011;59504;54.806;9.640;2022-07-29T12:01:12;7.50;;;1.52;;
71667;SDS011;59504;54.806;9.640;2022-07-29T12:03:23;5.90;;;1.00;;
71667;SDS011;59504;54.806;9.640;2022-07-29T12:07:39;7.00;;;1.60;;
71667;SDS011;59504;54.806;9.640;2022-07-29T12:09:48;3.58;;;1.17;;
71667;SDS011;59504;54.806;9.640;2022-07-29T12:11:58;7.75;;;1.08;;
71667;SDS011;59504;54.806;9.640;2022-07-29T12:13:59;5.53;;;1.27;;
71667;SDS011;59504;54.806;9.640;2022-07-29T12:16:00;3.60;;;1.20;;
71667;SDS011;59504;54.806;9.640;2022-07-29T12:18:10;4.57;;;1.30;;
71667;SDS011;59504;54.806;9.640;2022-07-29T12:20:11;5.05;;;1.17;;
71667;SDS011;59504;54.806;9.640;2022-07-29T12:22:12;3.03;;;1.00;;
71667;SDS011;59504;54.806;9.640;2022-07-29T12:24:41;8.82;;;1.95;;
71667;SDS011;59504;54.806;9.640;2022-07-29T12:26:49;1.60;;;0.80;;
71667;SDS011;59504;54.806;9.640;2022-07-29T12:28:55;2.08;;;0.77;;
71667;SDS011;59504;54.806;9.640;2022-07-29T12:30:56;3.08;;;1.25;;
71667;SDS011;59504;54.806;9.640;2022-07-29T12:32:56;5.70;;;1.25;;
71667;SDS011;59504;54.806;9.640;2022-07-29T12:34:57;2.50;;;0.90;;
71667;SDS011;59504;54.806;9.640;2022-07-29T12:36:59;7.93;;;1.00;;
71667;SDS011;59504;54.806;9.640;2022-07-29T12:39:01;7.10;;;0.90;;
71667;SDS011;59504;54.806;9.640;2022-07-29T12:41:02;5.95;;;0.98;;
71667;SDS011;59504;54.806;9.640;2022-07-29T12:45:12;2.85;;;1.08;;
71667;SDS011;59504;54.806;9.640;2022-07-29T12:47:13;5.38;;;1.02;;
71667;SDS011;59504;54.806;9.640;2022-07-29T12:49:21;4.60;;;1.23;;
71667;SDS011;59504;54.806;9.640;2022-07-29T12:51:29;3.22;;;0.90;;
71667;SDS011;59504;54.806;9.640;2022-07-29T12:53:38;4.95;;;1.30;;
71667;SDS011;59504;54.806;9.640;2022-07-29T12:55:40;5.55;;;1.10;;
71667;SDS011;59504;54.806;9.640;2022-07-29T12:58:08;2.28;;;0.90;;
71667;SDS011;59504;54.806;9.640;2022-07-29T13:00:29;4.07;;;0.85;;
71667;SDS011;59504;54.806;9.640;2022-07-29T13:02:57;5.65;;;1.20;;
71667;SDS011;59504;54.806;9.640;2022-07-29T13:05:19;4.28;;;0.98;;
71667;SDS011;59504;54.806;9.640;2022-07-29T13:07:39;2.20;;;1.10;;
71667;SDS011;59504;54.806;9.640;2022-07-29T13:12:33;2.47;;;0.90;;
71667;SDS011;59504;54.806;9.640;2022-07-29T13:14:54;4.10;;;1.63;;
71667;SDS011;59504;54.806;9.640;2022-07-29T13:17:18;6.43;;;1.42;;
71667;SDS011;59504;54.806;9.640;2022-07-29T13:19:44;4.50;;;1.35;;
71667;SDS011;59504;54.806;9.640;2022-07-29T13:22:10;4.55;;;1.23;;
71667;SDS011;59504;54.806;9.640;2022-07-29T13:24:33;1.33;;;0.83;;
71667;SDS011;59504;54.806;9.640;2022-07-29T13:26:54;5.97;;;1.42;;
71667;SDS011;59504;54.806;9.640;2022-07-29T13:28:55;3.28;;;0.80;;
71667;SDS011;59504;54.806;9.640;2022-07-29T13:30:55;2.53;;;0.93;;
71667;SDS011;59504;54.806;9.640;2022-07-29T13:32:56;4.90;;;1.10;;
71667;SDS011;59504;54.806;9.640;2022-07-29T13:34:57;2.88;;;0.80;;
71667;SDS011;59504;54.806;9.640;2022-07-29T13:37:00;3.95;;;1.35;;
71667;SDS011;59504;54.806;9.640;2022-07-29T13:39:00;4.32;;;0.90;;
71667;SDS011;59504;54.806;9.640;2022-07-29T13:41:02;3.00;;;1.10;;
71667;SDS011;59504;54.806;9.640;2022-07-29T13:43:03;8.50;;;1.30;;
71667;SDS011;59504;54.806;9.640;2022-07-29T13:45:04;15.57;;;2.05;;
71667;SDS011;59504;54.806;9.640;2022-07-29T13:47:06;10.65;;;1.10;;
71667;SDS011;59504;54.806;9.640;2022-07-29T13:49:08;3.13;;;1.40;;
71667;SDS011;59504;54.806;9.640;2022-07-29T13:51:08;2.58;;;0.90;;
71667;SDS011;59504;54.806;9.640;2022-07-29T13:53:09;6.38;;;1.27;;
71667;SDS011;59504;54.806;9.640;2022-07-29T13:55:10;4.60;;;1.30;;
71667;SDS011;59504;54.806;9.640;2022-07-29T13:57:10;4.22;;;1.13;;
71667;SDS011;59504;54.806;9.640;2022-07-29T13:59:12;3.33;;;1.23;;
71667;SDS011;59504;54.806;9.640;2022-07-29T14:01:13;6.90;;;1.20;;
71667;SDS011;59504;54.806;9.640;2022-07-29T14:03:13;4.93;;;1.08;;
71667;SDS011;59504;54.806;9.640;2022-07-29T14:05:14;5.70;;;1.05;;
71667;SDS011;59504;54.806;9.640;2022-07-29T14:07:15;4.57;;;1.15;;
71667;SDS011;59504;54.806;9.640;2022-07-29T14:09:18;3.20;;;1.17;;
71667;SDS011;59504;54.806;9.640;2022-07-29T14:11:19;6.80;;;1.48;;
71667;SDS011;59504;54.806;9.640;2022-07-29T14:13:20;2.92;;;0.90;;
71667;SDS011;59504;54.806;9.640;2022-07-29T14:15:20;4.97;;;1.08;;
71667;SDS011;59504;54.806;9.640;2022-07-29T14:17:21;13.23;;;1.35;;
71667;SDS011;59504;54.806;9.640;2022-07-29T14:19:22;2.10;;;1.00;;
71667;SDS011;59504;54.806;9.640;2022-07-29T14:21:23;8.52;;;1.00;;
71667;SDS011;59504;54.806;9.640;2022-07-29T14:23:25;3.22;;;0.93;;
71667;SDS011;59504;54.806;9.640;2022-07-29T14:25:25;2.28;;;0.90;;
71667;SDS011;59504;54.806;9.640;2022-07-29T14:27:42;3.45;;;0.95;;
71667;SDS011;59504;54.806;9.640;2022-07-29T14:30:03;7.43;;;1.52;;
71667;SDS011;59504;54.806;9.640;2022-07-29T14:32:25;1.95;;;0.70;;
71667;SDS011;59504;54.806;9.640;2022-07-29T14:34:38;2.03;;;0.70;;
71667;SDS011;59504;54.806;9.640;2022-07-29T14:37:08;4.95;;;0.93;;
71667;SDS011;59504;54.806;9.640;2022-07-29T14:39:29;5.30;;;1.15;;
71667;SDS011;59504;54.806;9.640;2022-07-29T14:41:50;5.00;;;0.90;;
71667;SDS011;59504;54.806;9.640;2022-07-29T14:44:11;4.55;;;0.80;;
71667;SDS011;59504;54.806;9.640;2022-07-29T14:46:31;4.30;;;1.20;;
71667;SDS011;59504;54.806;9.640;2022-07-29T14:48:35;3.22;;;1.08;;
71667;SDS011;59504;54.806;9.640;2022-07-29T14:50:55;4.43;;;1.27;;
71667;SDS011;59504;54.806;9.640;2022-07-29T14:53:16;3.25;;;0.85;;
71667;SDS011;59504;54.806;9.640;2022-07-29T14:55:37;1.40;;;0.70;;
71667;SDS011;59504;54.806;9.640;2022-07-29T14:57:57;3.38;;;1.00;;
71667;SDS011;59504;54.806;9.640;2022-07-29T15:00:19;3.00;;;0.90;;
71667;SDS011;59504;54.806;9.640;2022-07-29T15:02:40;2.72;;;1.13;;
71667;SDS011;59504;54.806;9.640;2022-07-29T15:05:01;5.75;;;1.42;;
71667;SDS011;59504;54.806;9.640;2022-07-29T15:07:22;4.22;;;1.27;;
71667;SDS011;59504;54.806;9.640;2022-07-29T15:09:43;7.03;;;1.33;;
71667;SDS011;59504;54.806;9.640;2022-07-29T15:11:45;3.63;;;1.03;;